This is the latest recevied weather packets stored in our database for station/object KD0RIH. If no packets are shown the sender has not sent any weather packets the latest 10 day(s).
| Time | Temp. | Humidity | Pressure | Rain* | Wind** | Luminosity | Snow |
|---|---|---|---|---|---|---|---|
| 1777593823 | 14.44° C | 44% | 1016.2 hPa | 0 mm | - | 33 W/m² | - |
| 1777593519 | 14.44° C | 43% | 1016.2 hPa | 0 mm | - | 49 W/m² | - |
| 1777593218 | 14.44° C | 44% | 1016.2 hPa | 0 mm | - | 61 W/m² | - |
| 1777592918 | 15° C | 45% | 1016.2 hPa | 0 mm | - | 64 W/m² | - |
| 1777592614 | 15° C | 48% | 1015.9 hPa | 0 mm | - | 53 W/m² | - |
| 1777592310 | 15° C | 49% | 1016.1 hPa | 0 mm | - | 69 W/m² | - |
| 1777592006 | 15° C | 49% | 1016.1 hPa | 0 mm | - | 73 W/m² | - |
| 1777591702 | 15.56° C | 50% | 1015.9 hPa | 0 mm | - | 70 W/m² | - |
| 1777591398 | 15.56° C | 50% | 1016 hPa | 0 mm | - | 72 W/m² | - |
| 1777591094 | 15.56° C | 49% | 1015.9 hPa | 0 mm | - | 75 W/m² | - |
| 1777590790 | 16.11° C | 48% | 1015.8 hPa | 0 mm | - | 94 W/m² | - |
| 1777590486 | 16.67° C | 47% | 1015.5 hPa | 0 mm | - | 133 W/m² | - |
| 1777590183 | 17.22° C | 48% | 1015.7 hPa | 0 mm | - | 114 W/m² | - |
| 1777589879 | 17.22° C | 47% | 1015.6 hPa | 0 mm | - | 129 W/m² | - |
| 1777589575 | 17.78° C | 47% | 1015.3 hPa | 0 mm | - | 144 W/m² | - |
| 1777589273 | 17.78° C | 47% | 1015.3 hPa | 0 mm | - | 114 W/m² | - |
| 1777588971 | 19.44° C | 44% | 1015.3 hPa | 0 mm | - | 104 W/m² | - |
| 1777588666 | 20° C | 43% | 1015.1 hPa | 0 mm | - | 180 W/m² | - |
| 1777588362 | 19.44° C | 45% | 1015.1 hPa | 0 mm | - | 322 W/m² | - |
| 1777588058 | 18.89° C | 46% | 1015.2 hPa | 0 mm | - | 433 W/m² | - |
| 1777587754 | 18.89° C | 47% | 1015 hPa | 0 mm | - | 195 W/m² | - |
| 1777587453 | 20.56° C | 44% | 1015.1 hPa | 0 mm | - | 157 W/m² | - |
| 1777587150 | 21.11° C | 42% | 1015.2 hPa | 0 mm | - | 428 W/m² | - |
| 1777586845 | 20.56° C | 45% | 1015 hPa | 0 mm | - | 519 W/m² | - |
| 1777586541 | 20.56° C | 44% | 1015 hPa | 0 mm | - | 492 W/m² | - |
* Rain latest hour (hover to see other rain measurements)
** Current wind speed in m/s (hover to see current wind gust speed)